Time;durP1;ratioP1;P1;durP2;ratioP2;P2;SDS_P1;SDS_P2;PMS_P1;PMS_P2;Temp;Humidity;BMP_temperature;BMP_pressure;BME280_temperature;BME280_humidity;BME280_pressure;Samples;Min_cycle;Max_cycle;Signal;HPM_P1;HPM_P2
2021/11/01 00:02:03;;;;;;;;;;;;;;;;;;5134057;27;19951;-72
2021/11/01 00:04:29;;;;;;;;;;;;;;;;;;5131427;28;19911;-72
2021/11/01 00:06:54;;;;;;;;;;;;;;;;;;5129714;28;19900;-72
2021/11/01 00:09:19;;;;;;;;;;;;;;;;;;5134519;28;19900;-72
2021/11/01 00:11:44;;;;;;;;;;;;;;;;;;5128788;28;19908;-72
2021/11/01 00:14:10;;;;;;;;;;;;;;;;;;5134114;28;19922;-72
2021/11/01 00:16:35;;;;;;;;;;;;;;;;;;5131595;28;19903;-72
2021/11/01 00:19:00;;;;;;;;;;;;;;;;;;5129461;28;19943;-72
2021/11/01 00:21:25;;;;;;;;;;;;;;;;;;5136334;27;19915;-72
2021/11/01 00:23:50;;;;;;;;;;;;;;;;;;5142313;27;19907;-72
2021/11/01 00:26:16;;;;;;;;;;;;;;;;;;5131487;28;19907;-72
2021/11/01 00:28:41;;;;;;;;;;;;;;;;;;5130957;28;19906;-72
2021/11/01 00:31:09;;;;;;;;;;;;;;;;;;5129240;28;19900;-72
2021/11/01 00:33:34;;;;;;;;;;;;;;;;;;5134735;28;20066;-72
2021/11/01 00:36:00;;;;;;;;;;;;;;;;;;5128525;28;19939;-72
2021/11/01 00:38:25;;;;;;;;;;;;;;;;;;5129995;28;19907;-73
2021/11/01 00:40:50;;;;;;;;;;;;;;;;;;5144294;27;19907;-72
2021/11/01 00:43:16;;;;;;;;;;;;;;;;;;5129935;28;19919;-72
2021/11/01 00:45:41;;;;;;;;;;;;;;;;;;5136373;28;20036;-72
2021/11/01 00:48:06;;;;;;;;;;;;;;;;;;5120240;28;19900;-72
2021/11/01 00:50:32;;;;;;;;;;;;;;;;;;5129428;28;19932;-72
2021/11/01 00:52:58;;;;;;;;;;;;;;;;;;5135939;28;19922;-72
2021/11/01 00:55:28;;;;;;;;;;;;;;;;;;5128628;27;19916;-72
2021/11/01 00:57:53;;;;;;;;;;;;;;;;;;5136213;28;19920;-72
2021/11/01 01:00:19;;;;;;;;;;;;;;;;;;5129574;27;19929;-72
2021/11/01 01:02:44;;;;;;;;;;;;;;;;;;5123771;27;19904;-72
2021/11/01 01:05:09;;;;;;;;;;;;;;;;;;5115596;28;19954;-72
2021/11/01 01:07:34;;;;;;;;;;;;;;;;;;5128018;27;19908;-72
2021/11/01 01:10:00;;;;;;;;;;;;;;;;;;5134145;28;19907;-72
2021/11/01 01:12:25;;;;;;;;;;;;;;;;;;5117799;28;19904;-72
2021/11/01 01:14:58;;;;;;;;;;;;;;;;;;5129720;28;19923;-72
2021/11/01 01:17:24;;;;;;;;;;;;;;;;;;5133094;28;19912;-72
2021/11/01 01:19:58;;;;;;;;;;;;;;;;;;5128792;28;19910;-72
2021/11/01 01:22:33;;;;;;;;;;;;;;;;;;5134490;28;19976;-72
2021/11/01 01:24:59;;;;;;;;;;;;;;;;;;5129765;28;19907;-72
2021/11/01 01:27:27;;;;;;;;;;;;;;;;;;5129637;28;19904;-73
2021/11/01 01:29:52;;;;;;;;;;;;;;;;;;5134309;28;19933;-72
2021/11/01 01:32:17;;;;;;;;;;;;;;;;;;5129577;28;20214;-72
2021/11/01 01:34:42;;;;;;;;;;;;;;;;;;5134167;28;19908;-72
2021/11/01 01:37:08;;;;;;;;;;;;;;;;;;5128821;28;19939;-72
2021/11/01 01:39:33;;;;;;;;;;;;;;;;;;5128884;28;19939;-72
2021/11/01 01:41:58;;;;;;;;;;;;;;;;;;5134339;28;19922;-72
2021/11/01 01:44:23;;;;;;;;;;;;;;;;;;5130084;28;19910;-72
2021/11/01 01:46:49;;;;;;;;;;;;;;;;;;5135013;28;19903;-72
2021/11/01 01:49:14;;;;;;;;;;;;;;;;;;5127826;28;19900;-72
2021/11/01 01:51:39;;;;;;;;;;;;;;;;;;5127659;28;19994;-74
2021/11/01 01:54:05;;;;;;;;;;;;;;;;;;5133039;28;19968;-72
2021/11/01 01:56:30;;;;;;;;;;;;;;;;;;5129225;27;19907;-72
2021/11/01 01:58:56;;;;;;;;;;;;;;;;;;5133618;28;19923;-73
2021/11/01 02:01:24;;;;;;;;;;;;;;;;;;5142878;27;19911;-72
2021/11/01 02:03:50;;;;;;;;;;;;;;;;;;5128402;28;19900;-72
2021/11/01 02:06:15;;;;;;;;;;;;;;;;;;5131081;28;19943;-72
2021/11/01 02:08:40;;;;;;;;;;;;;;;;;;5128119;28;19919;-72
2021/11/01 02:11:06;;;;;;;;;;;;;;;;;;5133122;28;19916;-72
2021/11/01 02:13:34;;;;;;;;;;;;;;;;;;5128551;28;19918;-72
2021/11/01 02:15:59;;;;;;;;;;;;;;;;;;5128672;28;19900;-73
2021/11/01 02:18:24;;;;;;;;;;;;;;;;;;5134121;28;19912;-73
2021/11/01 02:20:49;;;;;;;;;;;;;;;;;;5128117;27;19951;-72
2021/11/01 02:23:15;;;;;;;;;;;;;;;;;;5131511;28;19914;-73
2021/11/01 02:25:40;;;;;;;;;;;;;;;;;;5131171;28;19900;-72
2021/11/01 02:28:06;;;;;;;;;;;;;;;;;;5127479;28;19904;-72
2021/11/01 02:30:31;;;;;;;;;;;;;;;;;;5133946;28;19900;-72
2021/11/01 02:32:56;;;;;;;;;;;;;;;;;;5127970;28;19971;-72
2021/11/01 02:35:22;;;;;;;;;;;;;;;;;;5130350;28;19915;-72
2021/11/01 02:37:47;;;;;;;;;;;;;;;;;;5132193;28;19964;-72
2021/11/01 02:40:13;;;;;;;;;;;;;;;;;;5129120;28;20086;-72
2021/11/01 02:42:38;;;;;;;;;;;;;;;;;;5132760;28;19908;-72
2021/11/01 02:45:03;;;;;;;;;;;;;;;;;;5128199;28;20007;-72
2021/11/01 02:47:28;;;;;;;;;;;;;;;;;;5126601;28;19963;-72
2021/11/01 02:49:53;;;;;;;;;;;;;;;;;;5132798;28;19900;-72
2021/11/01 02:52:19;;;;;;;;;;;;;;;;;;5109718;28;19904;-72
2021/11/01 02:54:45;;;;;;;;;;;;;;;;;;5133093;28;19910;-72
2021/11/01 02:57:10;;;;;;;;;;;;;;;;;;5127352;28;19907;-72
2021/11/01 02:59:35;;;;;;;;;;;;;;;;;;5127863;28;20217;-72
2021/11/01 03:02:01;;;;;;;;;;;;;;;;;;5138572;28;19900;-72
2021/11/01 03:04:27;;;;;;;;;;;;;;;;;;5131051;28;19904;-73
2021/11/01 03:06:52;;;;;;;;;;;;;;;;;;5137731;28;19938;-72
2021/11/01 03:09:17;;;;;;;;;;;;;;;;;;5132009;28;19900;-73
2021/11/01 03:11:42;;;;;;;;;;;;;;;;;;5129929;28;19967;-73
2021/11/01 03:14:07;;;;;;;;;;;;;;;;;;5119567;28;19908;-74
2021/11/01 03:16:33;;;;;;;;;;;;;;;;;;5131329;28;19912;-76
2021/11/01 03:18:59;;;;;;;;;;;;;;;;;;5138191;28;19919;-76
2021/11/01 03:21:26;;;;;;;;;;;;;;;;;;5132779;28;19967;-76
2021/11/01 03:23:51;;;;;;;;;;;;;;;;;;5131984;28;19904;-75
2021/11/01 03:26:17;;;;;;;;;;;;;;;;;;5136325;28;19907;-75
2021/11/01 03:28:42;;;;;;;;;;;;;;;;;;5132044;28;19907;-75
2021/11/01 03:31:07;;;;;;;;;;;;;;;;;;5136756;28;19910;-75
2021/11/01 03:33:38;;;;;;;;;;;;;;;;;;5130805;28;19904;-75
2021/11/01 03:36:03;;;;;;;;;;;;;;;;;;5130737;28;19926;-73
2021/11/01 03:38:28;;;;;;;;;;;;;;;;;;5135908;28;19912;-74
2021/11/01 03:40:53;;;;;;;;;;;;;;;;;;5130452;28;19924;-75
2021/11/01 03:43:38;;;;;;;;;;;;;;;;;;5136654;28;19910;-76
2021/11/01 03:46:05;;;;;;;;;;;;;;;;;;5121171;28;19912;-77
2021/11/01 03:48:35;;;;;;;;;;;;;;;;;;5131091;28;19915;-76
2021/11/01 03:51:05;;;;;;;;;;;;;;;;;;5132590;27;19908;-76
2021/11/01 03:53:31;;;;;;;;;;;;;;;;;;5131852;28;19908;-76
2021/11/01 03:55:56;;;;;;;;;;;;;;;;;;5135781;28;19922;-77
2021/11/01 03:58:21;;;;;;;;;;;;;;;;;;5128889;28;20123;-76
2021/11/01 04:00:46;;;;;;;;;;;;;;;;;;5130063;28;19986;-76
2021/11/01 04:03:12;;;;;;;;;;;;;;;;;;5137128;28;19929;-76
2021/11/01 04:05:37;;;;;;;;;;;;;;;;;;5112887;28;19904;-77
2021/11/01 04:08:02;;;;;;;;;;;;;;;;;;5137051;28;19935;-77
2021/11/01 04:10:28;;;;;;;;;;;;;;;;;;5129362;28;19911;-76
2021/11/01 04:12:53;;;;;;;;;;;;;;;;;;5128199;28;19935;-77
2021/11/01 04:15:22;;;;;;;;;;;;;;;;;;5125153;28;19930;-77
2021/11/01 04:17:52;;;;;;;;;;;;;;;;;;5123104;28;19919;-77
2021/11/01 04:22:43;;;;;;;;;;;;;;;;;;5135278;28;19959;-76
2021/11/01 04:25:08;;;;;;;;;;;;;;;;;;5131680;28;20381;-76
2021/11/01 04:27:33;;;;;;;;;;;;;;;;;;5135117;28;19985;-76
2021/11/01 04:30:00;;;;;;;;;;;;;;;;;;5130796;28;19907;-76
2021/11/01 04:34:58;;;;;;;;;;;;;;;;;;5134738;28;19966;-77
2021/11/01 04:37:23;;;;;;;;;;;;;;;;;;5131417;28;19925;-76
2021/11/01 04:40:23;;;;;;;;;;;;;;;;;;5134921;28;19908;-76
2021/11/01 04:53:30;;;;;;;;;;;;;;;;;;5130308;28;19900;-76
2021/11/01 04:55:55;;;;;;;;;;;;;;;;;;5136045;28;19911;-76
2021/11/01 04:58:21;;;;;;;;;;;;;;;;;;5130388;28;19916;-77
2021/11/01 05:00:48;;;;;;;;;;;;;;;;;;5128307;28;19940;-76
2021/11/01 05:05:58;;;;;;;;;;;;;;;;;;5130628;28;19963;-76
2021/11/01 05:08:28;;;;;;;;;;;;;;;;;;5133826;28;19907;-76
2021/11/01 05:10:58;;;;;;;;;;;;;;;;;;5129762;28;19935;-76
2021/11/01 05:13:28;;;;;;;;;;;;;;;;;;5129827;28;19915;-76
2021/11/01 05:23:56;;;;;;;;;;;;;;;;;;5134130;28;19911;-76
2021/11/01 05:26:32;;;;;;;;;;;;;;;;;;5128886;28;19904;-76
2021/11/01 05:29:04;;;;;;;;;;;;;;;;;;5129809;28;20282;-74
2021/11/01 05:31:30;;;;;;;;;;;;;;;;;;5135005;28;20223;-75
2021/11/01 05:34:05;;;;;;;;;;;;;;;;;;5127952;28;19916;-75
2021/11/01 05:36:30;;;;;;;;;;;;;;;;;;5135174;28;20042;-75
2021/11/01 05:38:56;;;;;;;;;;;;;;;;;;5125970;28;19938;-75
2021/11/01 05:41:21;;;;;;;;;;;;;;;;;;5120414;28;19933;-76
2021/11/01 05:43:46;;;;;;;;;;;;;;;;;;5134739;28;19896;-75
2021/11/01 05:46:12;;;;;;;;;;;;;;;;;;5128176;28;19922;-75
2021/11/01 05:48:37;;;;;;;;;;;;;;;;;;5134796;28;19926;-75
2021/11/01 05:51:03;;;;;;;;;;;;;;;;;;5144401;27;19896;-76
2021/11/01 05:53:34;;;;;;;;;;;;;;;;;;5127663;28;19907;-75
2021/11/01 06:04:06;;;;;;;;;;;;;;;;;;5125977;28;20009;-75
2021/11/01 06:14:30;;;;;;;;;;;;;;;;;;5124050;27;19908;-76
2021/11/01 06:16:55;;;;;;;;;;;;;;;;;;5130457;27;19907;-76
2021/11/01 06:19:20;;;;;;;;;;;;;;;;;;5127782;27;20099;-76
2021/11/01 06:21:48;;;;;;;;;;;;;;;;;;5124076;27;19903;-76
2021/11/01 06:24:34;;;;;;;;;;;;;;;;;;5134254;28;19922;-76
2021/11/01 06:26:59;;;;;;;;;;;;;;;;;;5118957;28;19987;-76
2021/11/01 06:29:30;;;;;;;;;;;;;;;;;;5128060;28;19996;-76
2021/11/01 06:51:18;;;;;;;;;;;;;;;;;;5126398;28;19908;-75
2021/11/01 09:07:13;;;;;;;;;;;;;;;;;;5124628;27;20326;-73
2021/11/01 09:20:25;;;;;;;;;;;;;;;;;;5124538;28;20022;-74
2021/11/01 09:28:26;;;;;;;;;;;;;;;;;;5126493;28;20394;-74
2021/11/01 09:41:24;;;;;;;;;;;;;;;;;;5133671;28;19904;-72
2021/11/01 09:43:51;;;;;;;;;;;;;;;;;;5127495;28;19931;-73
2021/11/01 09:46:16;;;;;;;;;;;;;;;;;;5131661;28;19925;-74
2021/11/01 09:48:42;;;;;;;;;;;;;;;;;;5124879;28;19904;-73
2021/11/01 09:51:07;;;;;;;;;;;;;;;;;;5124085;28;19904;-76
2021/11/01 09:53:55;;;;;;;;;;;;;;;;;;5131366;28;19974;-73
2021/11/01 09:56:20;;;;;;;;;;;;;;;;;;5125711;28;19899;-73
2021/11/01 10:01:29;;;;;;;;;;;;;;;;;;5127480;28;19904;-73
2021/11/01 10:03:55;;;;;;;;;;;;;;;;;;5127634;28;19926;-73
2021/11/01 10:06:23;;;;;;;;;;;;;;;;;;5130479;28;19926;-73
2021/11/01 10:08:50;;;;;;;;;;;;;;;;;;5125437;27;19900;-73
2021/11/01 10:11:16;;;;;;;;;;;;;;;;;;5107320;28;20015;-74
2021/11/01 10:13:41;;;;;;;;;;;;;;;;;;5130172;28;19900;-74
2021/11/01 10:18:51;;;;;;;;;;;;;;;;;;5127767;28;19912;-73
2021/11/01 10:21:17;;;;;;;;;;;;;;;;;;5122811;28;19911;-73
2021/11/01 10:23:42;;;;;;;;;;;;;;;;;;5126521;28;19939;-73
2021/11/01 10:26:07;;;;;;;;;;;;;;;;;;5131508;28;19908;-73
2021/11/01 10:28:32;;;;;;;;;;;;;;;;;;5123713;28;19900;-73
2021/11/01 10:30:58;;;;;;;;;;;;;;;;;;5128297;27;20049;-73
2021/11/01 10:33:23;;;;;;;;;;;;;;;;;;5124654;28;19921;-73
2021/11/01 10:35:50;;;;;;;;;;;;;;;;;;5124585;28;19908;-73
2021/11/01 10:41:07;;;;;;;;;;;;;;;;;;5124209;28;19911;-74
2021/11/01 10:46:43;;;;;;;;;;;;;;;;;;5130719;28;19899;-74
2021/11/01 11:13:10;;;;;;;;;;;;;;;;;;5126167;28;19987;-72
2021/11/01 11:15:37;;;;;;;;;;;;;;;;;;5132886;28;19908;-72
2021/11/01 11:20:47;;;;;;;;;;;;;;;;;;5128040;28;19912;-72
2021/11/01 11:26:08;;;;;;;;;;;;;;;;;;5131946;28;19914;-73
2021/11/01 11:28:50;;;;;;;;;;;;;;;;;;5145619;27;19908;-72
2021/11/01 11:31:36;;;;;;;;;;;;;;;;;;5119766;28;19919;-72
2021/11/01 11:47:12;;;;;;;;;;;;;;;;;;5137111;28;19899;-73
2021/11/01 11:49:37;;;;;;;;;;;;;;;;;;5130670;28;19900;-72
2021/11/01 11:52:03;;;;;;;;;;;;;;;;;;5131277;28;19896;-72
2021/11/01 11:54:28;;;;;;;;;;;;;;;;;;5135850;28;19900;-73
2021/11/01 11:56:56;;;;;;;;;;;;;;;;;;5130893;28;19899;-72
2021/11/01 11:59:21;;;;;;;;;;;;;;;;;;5136569;28;19908;-72
2021/11/01 12:01:46;;;;;;;;;;;;;;;;;;5133040;27;19934;-72
2021/11/01 12:04:12;;;;;;;;;;;;;;;;;;5129757;28;19924;-72
2021/11/01 12:06:44;;;;;;;;;;;;;;;;;;5136509;28;19915;-71
2021/11/01 12:09:12;;;;;;;;;;;;;;;;;;5127606;28;19904;-71
2021/11/01 12:12:04;;;;;;;;;;;;;;;;;;5135931;28;19980;-73
2021/11/01 12:17:07;;;;;;;;;;;;;;;;;;5129610;28;19900;-72
2021/11/01 12:19:32;;;;;;;;;;;;;;;;;;5133594;28;19959;-72
2021/11/01 12:21:58;;;;;;;;;;;;;;;;;;5130501;27;19914;-73
2021/11/01 12:24:25;;;;;;;;;;;;;;;;;;5128603;28;19929;-72
2021/11/01 12:26:50;;;;;;;;;;;;;;;;;;5134262;28;20121;-73
2021/11/01 12:29:16;;;;;;;;;;;;;;;;;;5129974;28;19908;-72
2021/11/01 12:31:42;;;;;;;;;;;;;;;;;;5134256;28;20008;-72
2021/11/01 12:34:15;;;;;;;;;;;;;;;;;;5129127;28;19978;-73
2021/11/01 12:36:50;;;;;;;;;;;;;;;;;;5128814;28;20363;-72
2021/11/01 12:39:19;;;;;;;;;;;;;;;;;;5136072;28;19912;-73
2021/11/01 12:41:58;;;;;;;;;;;;;;;;;;5127461;28;19904;-72
2021/11/01 12:57:38;;;;;;;;;;;;;;;;;;5127681;28;19911;-72
2021/11/01 13:00:04;;;;;;;;;;;;;;;;;;5135228;27;19916;-72
2021/11/01 13:02:30;;;;;;;;;;;;;;;;;;5129599;28;19895;-72
2021/11/01 13:04:57;;;;;;;;;;;;;;;;;;5129435;28;19941;-72
2021/11/01 13:07:32;;;;;;;;;;;;;;;;;;5134316;28;19988;-73
2021/11/01 13:10:15;;;;;;;;;;;;;;;;;;5127101;28;19932;-72
2021/11/01 13:12:53;;;;;;;;;;;;;;;;;;5129861;28;19921;-72
2021/11/01 13:18:11;;;;;;;;;;;;;;;;;;5129507;28;20152;-72
2021/11/01 13:20:37;;;;;;;;;;;;;;;;;;5134252;27;19911;-72
2021/11/01 13:23:02;;;;;;;;;;;;;;;;;;5129640;28;19907;-72
2021/11/01 13:25:37;;;;;;;;;;;;;;;;;;5129294;28;19922;-72
2021/11/01 13:28:14;;;;;;;;;;;;;;;;;;5134656;28;19900;-72
2021/11/01 13:36:18;;;;;;;;;;;;;;;;;;5132943;28;19900;-73
2021/11/01 13:38:44;;;;;;;;;;;;;;;;;;5126756;28;19961;-72
2021/11/01 13:41:10;;;;;;;;;;;;;;;;;;5126856;28;19920;-72
2021/11/01 13:43:37;;;;;;;;;;;;;;;;;;5132831;28;19915;-72
2021/11/01 13:46:03;;;;;;;;;;;;;;;;;;5127681;28;19904;-72
2021/11/01 13:48:28;;;;;;;;;;;;;;;;;;5134106;28;19923;-72
2021/11/01 13:50:53;;;;;;;;;;;;;;;;;;5125155;27;19990;-72
2021/11/01 13:53:21;;;;;;;;;;;;;;;;;;5128456;28;19938;-72
2021/11/01 13:55:49;;;;;;;;;;;;;;;;;;5134730;28;19912;-72
2021/11/01 13:58:30;;;;;;;;;;;;;;;;;;5126609;28;19919;-73
2021/11/01 14:01:26;;;;;;;;;;;;;;;;;;5156495;27;19926;-72
2021/11/01 14:12:10;;;;;;;;;;;;;;;;;;5131473;28;19921;-72
2021/11/01 14:14:52;;;;;;;;;;;;;;;;;;5128429;27;19928;-73
2021/11/01 14:58:24;;;;;;;;;;;;;;;;;;5131253;28;19935;-73
2021/11/01 15:18:34;;;;;;;;;;;;;;;;;;5122316;28;20046;-71
2021/11/01 15:21:05;;;;;;;;;;;;;;;;;;5146937;27;19999;-71
2021/11/01 15:32:05;;;;;;;;;;;;;;;;;;5097867;28;19908;-72
2021/11/01 16:18:35;;;;;;;;;;;;;;;;;;5053196;28;19905;-72
2021/11/01 16:20:51;;;;;;;;;;;;;;;;;;5050302;28;19905;-72
2021/11/01 16:25:41;;;;;;;;;;;;;;;;;;5133050;28;19919;-72
2021/11/01 16:28:06;;;;;;;;;;;;;;;;;;5126899;28;19973;-72
2021/11/01 16:30:33;;;;;;;;;;;;;;;;;;5128103;28;19916;-73
2021/11/01 16:33:08;;;;;;;;;;;;;;;;;;5134497;27;19919;-73
2021/11/01 16:35:40;;;;;;;;;;;;;;;;;;5128574;28;19907;-72
2021/11/01 16:38:24;;;;;;;;;;;;;;;;;;5133030;28;20129;-72
2021/11/01 16:40:49;;;;;;;;;;;;;;;;;;5134433;28;19919;-72
2021/11/01 16:43:19;;;;;;;;;;;;;;;;;;5126643;28;19908;-72
2021/11/01 16:45:47;;;;;;;;;;;;;;;;;;5133978;28;19926;-72
2021/11/01 16:48:12;;;;;;;;;;;;;;;;;;5129064;28;19940;-72
2021/11/01 16:50:39;;;;;;;;;;;;;;;;;;5129414;27;19910;-72
2021/11/01 16:53:05;;;;;;;;;;;;;;;;;;5134377;28;19931;-71
2021/11/01 16:55:35;;;;;;;;;;;;;;;;;;5127004;28;19900;-71
2021/11/01 16:58:03;;;;;;;;;;;;;;;;;;5133107;28;19907;-72
2021/11/01 17:00:44;;;;;;;;;;;;;;;;;;5128047;27;19922;-72
2021/11/01 17:22:05;;;;;;;;;;;;;;;;;;5131819;28;20015;-72
2021/11/01 17:27:39;;;;;;;;;;;;;;;;;;5063917;28;19909;-72
2021/11/01 17:35:30;;;;;;;;;;;;;;;;;;5127866;28;19921;-72
2021/11/01 18:51:30;;;;;;;;;;;;;;;;;;5128645;28;19904;-72
2021/11/01 18:53:55;;;;;;;;;;;;;;;;;;5132207;28;19950;-72
2021/11/01 18:56:26;;;;;;;;;;;;;;;;;;5122660;28;19900;-71
2021/11/01 18:58:53;;;;;;;;;;;;;;;;;;5122206;28;19922;-71
2021/11/01 19:01:18;;;;;;;;;;;;;;;;;;5121315;28;19971;-72
2021/11/01 19:03:52;;;;;;;;;;;;;;;;;;5125510;28;19915;-72
2021/11/01 19:06:24;;;;;;;;;;;;;;;;;;5131580;28;20049;-69
2021/11/01 20:06:07;;;;;;;;;;;;;;;;;;5128384;28;19933;-71
2021/11/01 20:09:13;;;;;;;;;;;;;;;;;;5127934;28;19908;-71
2021/11/01 21:24:29;;;;;;;;;;;;;;;;;;5127539;28;19910;-71
2021/11/01 21:25:18;;;;;;;;;;;;;;;;;;5128005;28;19899;-71
2021/11/01 21:27:44;;;;;;;;;;;;;;;;;;5130767;27;19911;-72
2021/11/01 21:30:10;;;;;;;;;;;;;;;;;;5125491;28;19908;-70
2021/11/01 21:32:35;;;;;;;;;;;;;;;;;;5130627;28;19935;-73
2021/11/01 21:35:04;;;;;;;;;;;;;;;;;;5125526;28;19900;-73
2021/11/01 21:37:30;;;;;;;;;;;;;;;;;;5128048;27;19900;-73
2021/11/01 21:39:57;;;;;;;;;;;;;;;;;;5133099;28;19907;-73
2021/11/01 21:42:23;;;;;;;;;;;;;;;;;;5124581;27;19987;-73
2021/11/01 21:44:48;;;;;;;;;;;;;;;;;;5127982;28;19900;-72
2021/11/01 21:47:14;;;;;;;;;;;;;;;;;;5129753;28;20032;-72
2021/11/01 21:49:39;;;;;;;;;;;;;;;;;;5127881;27;19927;-71
2021/11/01 21:52:05;;;;;;;;;;;;;;;;;;5132917;28;19900;-71
2021/11/01 21:54:42;;;;;;;;;;;;;;;;;;5126970;28;19900;-73
2021/11/01 21:57:14;;;;;;;;;;;;;;;;;;5126242;28;19904;-71
2021/11/01 22:18:27;;;;;;;;;;;;;;;;;;5124999;27;19904;-71
2021/11/01 22:20:58;;;;;;;;;;;;;;;;;;5132777;28;19942;-71
2021/11/01 22:26:00;;;;;;;;;;;;;;;;;;5127672;28;19963;-72
2021/11/01 22:39:27;;;;;;;;;;;;;;;;;;5126410;28;19919;-71
2021/11/01 22:44:39;;;;;;;;;;;;;;;;;;5131781;28;20126;-71
2021/11/01 22:48:09;;;;;;;;;;;;;;;;;;5113127;28;19919;-71
2021/11/01 22:57:59;;;;;;;;;;;;;;;;;;5124751;28;19908;-71
2021/11/01 23:00:25;;;;;;;;;;;;;;;;;;5132101;28;19923;-71
2021/11/01 23:02:58;;;;;;;;;;;;;;;;;;5126848;28;19907;-71
2021/11/01 23:32:26;;;;;;;;;;;;;;;;;;5136840;28;19910;-72
2021/11/01 23:34:52;;;;;;;;;;;;;;;;;;5130857;28;19900;-72
2021/11/01 23:37:19;;;;;;;;;;;;;;;;;;5136811;28;19908;-72
2021/11/01 23:39:44;;;;;;;;;;;;;;;;;;5130450;28;19903;-72
2021/11/01 23:42:09;;;;;;;;;;;;;;;;;;5132453;28;19912;-72
2021/11/01 23:44:34;;;;;;;;;;;;;;;;;;5126232;28;19923;-72
2021/11/01 23:47:00;;;;;;;;;;;;;;;;;;5129625;28;19906;-72
2021/11/01 23:49:25;;;;;;;;;;;;;;;;;;5136062;28;19939;-72
2021/11/01 23:52:01;;;;;;;;;;;;;;;;;;5131705;28;19900;-74
2021/11/01 23:54:38;;;;;;;;;;;;;;;;;;5128197;28;19900;-72
2021/11/01 23:57:03;;;;;;;;;;;;;;;;;;5130113;28;19900;-72
2021/11/01 23:59:28;;;;;;;;;;;;;;;;;;5129420;27;19990;-72
